sensor_id;sensor_type;location;lat;lon;timestamp;P1;durP1;ratioP1;P2;durP2;ratioP2
76098;SDS011;64828;49.956;8.636;2023-04-28T00:00:06;8.00;;;4.72;;
76098;SDS011;64828;49.956;8.636;2023-04-28T00:00:22;7.72;;;5.00;;
76098;SDS011;64828;49.956;8.636;2023-04-28T00:00:38;7.23;;;4.97;;
76098;SDS011;64828;49.956;8.636;2023-04-28T00:00:54;6.50;;;4.47;;
76098;SDS011;64828;49.956;8.636;2023-04-28T00:01:09;6.83;;;4.40;;
76098;SDS011;64828;49.956;8.636;2023-04-28T00:01:26;7.30;;;4.30;;
76098;SDS011;64828;49.956;8.636;2023-04-28T00:01:41;6.20;;;4.13;;
76098;SDS011;64828;49.956;8.636;2023-04-28T00:01:57;5.68;;;4.38;;
76098;SDS011;64828;49.956;8.636;2023-04-28T00:02:13;6.75;;;4.70;;
76098;SDS011;64828;49.956;8.636;2023-04-28T00:02:28;7.27;;;4.67;;
76098;SDS011;64828;49.956;8.636;2023-04-28T00:02:44;8.15;;;4.45;;
76098;SDS011;64828;49.956;8.636;2023-04-28T00:03:01;8.38;;;4.80;;
76098;SDS011;64828;49.956;8.636;2023-04-28T00:03:17;7.03;;;4.80;;
76098;SDS011;64828;49.956;8.636;2023-04-28T00:03:33;6.95;;;4.57;;
76098;SDS011;64828;49.956;8.636;2023-04-28T00:03:48;7.33;;;4.67;;
76098;SDS011;64828;49.956;8.636;2023-04-28T00:04:04;6.82;;;4.72;;
76098;SDS011;64828;49.956;8.636;2023-04-28T00:04:19;7.82;;;4.55;;
76098;SDS011;64828;49.956;8.636;2023-04-28T00:04:35;8.17;;;4.70;;
76098;SDS011;64828;49.956;8.636;2023-04-28T00:04:51;6.38;;;4.50;;
76098;SDS011;64828;49.956;8.636;2023-04-28T00:05:06;6.73;;;4.40;;
76098;SDS011;64828;49.956;8.636;2023-04-28T00:05:22;8.93;;;4.60;;
76098;SDS011;64828;49.956;8.636;2023-04-28T00:05:39;8.57;;;4.97;;
76098;SDS011;64828;49.956;8.636;2023-04-28T00:05:55;6.35;;;5.03;;
76098;SDS011;64828;49.956;8.636;2023-04-28T00:06:11;5.50;;;4.30;;
76098;SDS011;64828;49.956;8.636;2023-04-28T00:06:27;6.32;;;4.25;;
76098;SDS011;64828;49.956;8.636;2023-04-28T00:06:44;6.82;;;4.70;;
76098;SDS011;64828;49.956;8.636;2023-04-28T00:07:00;6.50;;;4.72;;
76098;SDS011;64828;49.956;8.636;2023-04-28T00:07:15;6.80;;;4.60;;
76098;SDS011;64828;49.956;8.636;2023-04-28T00:07:31;6.90;;;4.50;;
76098;SDS011;64828;49.956;8.636;2023-04-28T00:07:47;7.70;;;4.57;;
76098;SDS011;64828;49.956;8.636;2023-04-28T00:08:03;6.90;;;4.72;;
76098;SDS011;64828;49.956;8.636;2023-04-28T00:08:19;6.28;;;4.70;;
76098;SDS011;64828;49.956;8.636;2023-04-28T00:08:36;6.70;;;4.70;;
76098;SDS011;64828;49.956;8.636;2023-04-28T00:08:52;6.57;;;4.60;;
76098;SDS011;64828;49.956;8.636;2023-04-28T00:09:07;6.82;;;4.70;;
76098;SDS011;64828;49.956;8.636;2023-04-28T00:09:26;7.32;;;4.93;;
76098;SDS011;64828;49.956;8.636;2023-04-28T00:09:41;8.57;;;4.70;;
76098;SDS011;64828;49.956;8.636;2023-04-28T00:09:57;8.35;;;4.70;;
76098;SDS011;64828;49.956;8.636;2023-04-28T00:10:12;7.03;;;4.70;;
76098;SDS011;64828;49.956;8.636;2023-04-28T00:10:32;8.38;;;4.70;;
76098;SDS011;64828;49.956;8.636;2023-04-28T00:10:48;8.52;;;4.70;;
76098;SDS011;64828;49.956;8.636;2023-04-28T00:11:07;8.20;;;4.57;;
76098;SDS011;64828;49.956;8.636;2023-04-28T00:11:26;7.68;;;4.72;;
76098;SDS011;64828;49.956;8.636;2023-04-28T00:11:43;6.53;;;4.70;;
76098;SDS011;64828;49.956;8.636;2023-04-28T00:12:00;9.05;;;4.88;;
76098;SDS011;64828;49.956;8.636;2023-04-28T00:12:17;10.55;;;5.28;;
76098;SDS011;64828;49.956;8.636;2023-04-28T00:12:32;8.83;;;5.00;;
76098;SDS011;64828;49.956;8.636;2023-04-28T00:12:48;9.20;;;4.82;;
76098;SDS011;64828;49.956;8.636;2023-04-28T00:13:04;8.83;;;5.10;;
76098;SDS011;64828;49.956;8.636;2023-04-28T00:13:19;7.72;;;5.00;;
76098;SDS011;64828;49.956;8.636;2023-04-28T00:13:35;7.90;;;4.80;;
76098;SDS011;64828;49.956;8.636;2023-04-28T00:13:51;6.88;;;4.72;;
76098;SDS011;64828;49.956;8.636;2023-04-28T00:14:07;6.82;;;4.57;;
76098;SDS011;64828;49.956;8.636;2023-04-28T00:14:22;7.63;;;4.80;;
76098;SDS011;64828;49.956;8.636;2023-04-28T00:14:38;7.40;;;4.90;;
76098;SDS011;64828;49.956;8.636;2023-04-28T00:14:54;6.93;;;4.70;;
76098;SDS011;64828;49.956;8.636;2023-04-28T00:15:10;6.10;;;4.50;;
76098;SDS011;64828;49.956;8.636;2023-04-28T00:15:27;6.15;;;4.38;;
76098;SDS011;64828;49.956;8.636;2023-04-28T00:15:43;6.25;;;4.50;;
76098;SDS011;64828;49.956;8.636;2023-04-28T00:15:58;5.85;;;4.55;;
76098;SDS011;64828;49.956;8.636;2023-04-28T00:16:15;5.78;;;4.50;;
76098;SDS011;64828;49.956;8.636;2023-04-28T00:16:31;5.63;;;4.30;;
76098;SDS011;64828;49.956;8.636;2023-04-28T00:16:47;6.28;;;4.32;;
76098;SDS011;64828;49.956;8.636;2023-04-28T00:17:03;6.50;;;4.35;;
76098;SDS011;64828;49.956;8.636;2023-04-28T00:17:18;5.93;;;4.15;;
76098;SDS011;64828;49.956;8.636;2023-04-28T00:17:34;6.57;;;4.10;;
76098;SDS011;64828;49.956;8.636;2023-04-28T00:17:49;7.10;;;4.10;;
76098;SDS011;64828;49.956;8.636;2023-04-28T00:18:05;6.73;;;4.23;;
76098;SDS011;64828;49.956;8.636;2023-04-28T00:18:21;7.05;;;4.22;;
76098;SDS011;64828;49.956;8.636;2023-04-28T00:18:36;6.45;;;4.13;;
76098;SDS011;64828;49.956;8.636;2023-04-28T00:18:52;6.17;;;4.13;;
76098;SDS011;64828;49.956;8.636;2023-04-28T00:19:07;6.30;;;4.47;;
76098;SDS011;64828;49.956;8.636;2023-04-28T00:19:23;6.47;;;4.37;;
76098;SDS011;64828;49.956;8.636;2023-04-28T00:19:39;6.13;;;4.30;;
76098;SDS011;64828;49.956;8.636;2023-04-28T00:19:54;5.67;;;4.20;;
76098;SDS011;64828;49.956;8.636;2023-04-28T00:20:10;5.78;;;4.22;;
76098;SDS011;64828;49.956;8.636;2023-04-28T00:20:26;6.13;;;4.32;;
76098;SDS011;64828;49.956;8.636;2023-04-28T00:20:41;5.80;;;4.28;;
76098;SDS011;64828;49.956;8.636;2023-04-28T00:20:57;6.27;;;4.17;;
76098;SDS011;64828;49.956;8.636;2023-04-28T00:21:13;6.80;;;4.18;;
76098;SDS011;64828;49.956;8.636;2023-04-28T00:21:28;6.60;;;4.23;;
76098;SDS011;64828;49.956;8.636;2023-04-28T00:21:44;6.32;;;4.10;;
76098;SDS011;64828;49.956;8.636;2023-04-28T00:21:59;6.38;;;4.28;;
76098;SDS011;64828;49.956;8.636;2023-04-28T00:22:15;5.70;;;4.40;;
76098;SDS011;64828;49.956;8.636;2023-04-28T00:22:31;5.55;;;4.25;;
76098;SDS011;64828;49.956;8.636;2023-04-28T00:22:46;5.23;;;4.20;;
76098;SDS011;64828;49.956;8.636;2023-04-28T00:23:03;5.63;;;4.28;;
76098;SDS011;64828;49.956;8.636;2023-04-28T00:23:19;6.47;;;4.05;;
76098;SDS011;64828;49.956;8.636;2023-04-28T00:23:35;6.53;;;4.07;;
76098;SDS011;64828;49.956;8.636;2023-04-28T00:23:50;6.82;;;4.20;;
76098;SDS011;64828;49.956;8.636;2023-04-28T00:24:06;7.80;;;4.30;;
76098;SDS011;64828;49.956;8.636;2023-04-28T00:24:22;7.22;;;4.50;;
76098;SDS011;64828;49.956;8.636;2023-04-28T00:24:37;5.73;;;4.23;;
76098;SDS011;64828;49.956;8.636;2023-04-28T00:24:53;5.57;;;4.10;;
76098;SDS011;64828;49.956;8.636;2023-04-28T00:25:09;6.30;;;4.10;;
76098;SDS011;64828;49.956;8.636;2023-04-28T00:25:24;5.82;;;3.83;;
76098;SDS011;64828;49.956;8.636;2023-04-28T00:25:40;5.32;;;3.92;;
76098;SDS011;64828;49.956;8.636;2023-04-28T00:25:55;5.73;;;4.37;;
76098;SDS011;64828;49.956;8.636;2023-04-28T00:26:11;6.38;;;4.60;;
76098;SDS011;64828;49.956;8.636;2023-04-28T00:26:27;8.23;;;4.80;;
76098;SDS011;64828;49.956;8.636;2023-04-28T00:26:42;8.87;;;4.73;;
76098;SDS011;64828;49.956;8.636;2023-04-28T00:26:58;8.52;;;4.72;;
76098;SDS011;64828;49.956;8.636;2023-04-28T00:27:13;7.93;;;4.70;;
76098;SDS011;64828;49.956;8.636;2023-04-28T00:27:29;7.57;;;4.40;;
76098;SDS011;64828;49.956;8.636;2023-04-28T00:27:46;6.55;;;4.20;;
76098;SDS011;64828;49.956;8.636;2023-04-28T00:28:02;6.13;;;3.95;;
76098;SDS011;64828;49.956;8.636;2023-04-28T00:28:18;5.63;;;4.23;;
76098;SDS011;64828;49.956;8.636;2023-04-28T00:28:34;5.65;;;4.68;;
76098;SDS011;64828;49.956;8.636;2023-04-28T00:28:50;6.27;;;4.67;;
76098;SDS011;64828;49.956;8.636;2023-04-28T00:29:05;5.63;;;4.53;;
76098;SDS011;64828;49.956;8.636;2023-04-28T00:29:21;5.47;;;4.33;;
76098;SDS011;64828;49.956;8.636;2023-04-28T00:29:36;7.28;;;4.50;;
76098;SDS011;64828;49.956;8.636;2023-04-28T00:29:52;8.38;;;4.50;;
76098;SDS011;64828;49.956;8.636;2023-04-28T00:30:08;6.68;;;4.10;;
76098;SDS011;64828;49.956;8.636;2023-04-28T00:30:24;5.32;;;3.90;;
76098;SDS011;64828;49.956;8.636;2023-04-28T00:30:40;5.00;;;3.93;;
76098;SDS011;64828;49.956;8.636;2023-04-28T00:30:55;7.15;;;4.32;;
76098;SDS011;64828;49.956;8.636;2023-04-28T00:31:12;6.77;;;4.23;;
76098;SDS011;64828;49.956;8.636;2023-04-28T00:31:29;4.82;;;3.88;;
76098;SDS011;64828;49.956;8.636;2023-04-28T00:31:45;4.93;;;3.90;;
76098;SDS011;64828;49.956;8.636;2023-04-28T00:32:00;5.75;;;4.10;;
76098;SDS011;64828;49.956;8.636;2023-04-28T00:32:17;6.22;;;3.75;;
76098;SDS011;64828;49.956;8.636;2023-04-28T00:32:32;7.03;;;3.88;;
76098;SDS011;64828;49.956;8.636;2023-04-28T00:32:48;8.10;;;4.23;;
76098;SDS011;64828;49.956;8.636;2023-04-28T00:33:03;7.32;;;4.05;;
76098;SDS011;64828;49.956;8.636;2023-04-28T00:33:19;6.15;;;3.80;;
76098;SDS011;64828;49.956;8.636;2023-04-28T00:33:35;5.72;;;4.07;;
76098;SDS011;64828;49.956;8.636;2023-04-28T00:33:51;5.60;;;3.97;;
76098;SDS011;64828;49.956;8.636;2023-04-28T00:34:06;5.15;;;3.63;;
76098;SDS011;64828;49.956;8.636;2023-04-28T00:34:22;7.17;;;3.93;;
76098;SDS011;64828;49.956;8.636;2023-04-28T00:34:56;6.20;;;3.70;;
76098;SDS011;64828;49.956;8.636;2023-04-28T00:35:11;7.25;;;3.65;;
76098;SDS011;64828;49.956;8.636;2023-04-28T00:35:27;6.90;;;3.67;;
76098;SDS011;64828;49.956;8.636;2023-04-28T00:35:42;5.50;;;3.40;;
76098;SDS011;64828;49.956;8.636;2023-04-28T00:35:59;6.60;;;3.60;;
76098;SDS011;64828;49.956;8.636;2023-04-28T00:36:15;6.85;;;3.83;;
76098;SDS011;64828;49.956;8.636;2023-04-28T00:36:30;5.18;;;3.40;;
76098;SDS011;64828;49.956;8.636;2023-04-28T00:36:47;4.32;;;3.38;;
76098;SDS011;64828;49.956;8.636;2023-04-28T00:37:02;4.57;;;3.50;;
76098;SDS011;64828;49.956;8.636;2023-04-28T00:37:18;4.93;;;3.53;;
76098;SDS011;64828;49.956;8.636;2023-04-28T00:37:35;5.35;;;3.45;;
76098;SDS011;64828;49.956;8.636;2023-04-28T00:37:51;5.20;;;3.50;;
76098;SDS011;64828;49.956;8.636;2023-04-28T00:38:07;6.03;;;3.70;;
76098;SDS011;64828;49.956;8.636;2023-04-28T00:38:22;6.10;;;3.75;;
76098;SDS011;64828;49.956;8.636;2023-04-28T00:38:39;5.40;;;3.38;;
76098;SDS011;64828;49.956;8.636;2023-04-28T00:38:55;5.88;;;3.42;;
76098;SDS011;64828;49.956;8.636;2023-04-28T00:39:10;6.33;;;3.57;;
76098;SDS011;64828;49.956;8.636;2023-04-28T00:39:26;6.05;;;3.45;;
76098;SDS011;64828;49.956;8.636;2023-04-28T00:39:41;5.95;;;3.58;;
76098;SDS011;64828;49.956;8.636;2023-04-28T00:40:01;7.43;;;3.65;;
76098;SDS011;64828;49.956;8.636;2023-04-28T00:40:16;7.00;;;3.70;;
76098;SDS011;64828;49.956;8.636;2023-04-28T00:40:35;5.22;;;3.40;;
76098;SDS011;64828;49.956;8.636;2023-04-28T00:40:52;4.28;;;3.10;;
76098;SDS011;64828;49.956;8.636;2023-04-28T00:41:08;4.45;;;3.20;;
76098;SDS011;64828;49.956;8.636;2023-04-28T00:41:25;4.85;;;3.28;;
76098;SDS011;64828;49.956;8.636;2023-04-28T00:41:41;5.53;;;3.33;;
76098;SDS011;64828;49.956;8.636;2023-04-28T00:41:56;6.57;;;3.50;;
76098;SDS011;64828;49.956;8.636;2023-04-28T00:42:12;5.63;;;3.30;;
76098;SDS011;64828;49.956;8.636;2023-04-28T00:42:29;4.35;;;3.30;;
76098;SDS011;64828;49.956;8.636;2023-04-28T00:42:45;4.63;;;3.20;;
76098;SDS011;64828;49.956;8.636;2023-04-28T00:43:00;5.40;;;3.13;;
76098;SDS011;64828;49.956;8.636;2023-04-28T00:43:16;5.28;;;3.28;;
76098;SDS011;64828;49.956;8.636;2023-04-28T00:43:42;5.38;;;3.47;;
76098;SDS011;64828;49.956;8.636;2023-04-28T00:44:02;6.10;;;3.67;;
76098;SDS011;64828;49.956;8.636;2023-04-28T00:44:18;5.85;;;3.90;;
76098;SDS011;64828;49.956;8.636;2023-04-28T00:44:33;7.07;;;3.80;;
76098;SDS011;64828;49.956;8.636;2023-04-28T00:44:49;7.20;;;3.60;;
76098;SDS011;64828;49.956;8.636;2023-04-28T00:45:04;5.73;;;3.67;;
76098;SDS011;64828;49.956;8.636;2023-04-28T00:45:21;6.18;;;3.80;;
76098;SDS011;64828;49.956;8.636;2023-04-28T00:45:37;6.05;;;3.88;;
76098;SDS011;64828;49.956;8.636;2023-04-28T00:45:52;5.20;;;3.60;;
76098;SDS011;64828;49.956;8.636;2023-04-28T00:46:08;4.88;;;3.45;;
76098;SDS011;64828;49.956;8.636;2023-04-28T00:46:28;5.72;;;3.45;;
76098;SDS011;64828;49.956;8.636;2023-04-28T00:46:46;6.53;;;3.30;;
76098;SDS011;64828;49.956;8.636;2023-04-28T00:47:02;7.10;;;3.85;;
76098;SDS011;64828;49.956;8.636;2023-04-28T00:47:18;7.93;;;3.80;;
76098;SDS011;64828;49.956;8.636;2023-04-28T00:47:33;6.30;;;3.30;;
76098;SDS011;64828;49.956;8.636;2023-04-28T00:47:52;6.07;;;3.50;;
76098;SDS011;64828;49.956;8.636;2023-04-28T00:48:10;5.28;;;3.58;;
76098;SDS011;64828;49.956;8.636;2023-04-28T00:48:28;5.05;;;3.35;;
76098;SDS011;64828;49.956;8.636;2023-04-28T00:48:43;4.63;;;3.10;;
76098;SDS011;64828;49.956;8.636;2023-04-28T00:48:59;5.43;;;3.10;;
76098;SDS011;64828;49.956;8.636;2023-04-28T00:49:15;5.87;;;3.33;;
76098;SDS011;64828;49.956;8.636;2023-04-28T00:49:31;5.25;;;3.40;;
76098;SDS011;64828;49.956;8.636;2023-04-28T00:49:48;6.28;;;3.45;;
76098;SDS011;64828;49.956;8.636;2023-04-28T00:50:04;6.97;;;3.72;;
76098;SDS011;64828;49.956;8.636;2023-04-28T00:50:20;5.82;;;3.70;;
76098;SDS011;64828;49.956;8.636;2023-04-28T00:50:37;7.07;;;3.45;;
76098;SDS011;64828;49.956;8.636;2023-04-28T00:50:53;7.18;;;3.40;;
76098;SDS011;64828;49.956;8.636;2023-04-28T00:51:09;7.38;;;3.47;;
76098;SDS011;64828;49.956;8.636;2023-04-28T00:51:25;4.93;;;3.23;;
76098;SDS011;64828;49.956;8.636;2023-04-28T00:51:42;5.00;;;3.50;;
76098;SDS011;64828;49.956;8.636;2023-04-28T00:51:59;5.25;;;3.40;;
76098;SDS011;64828;49.956;8.636;2023-04-28T00:52:18;5.55;;;3.30;;
76098;SDS011;64828;49.956;8.636;2023-04-28T00:52:34;5.70;;;3.35;;
76098;SDS011;64828;49.956;8.636;2023-04-28T00:52:52;4.78;;;3.10;;
76098;SDS011;64828;49.956;8.636;2023-04-28T00:53:09;5.03;;;3.33;;
76098;SDS011;64828;49.956;8.636;2023-04-28T00:53:27;4.85;;;3.60;;
76098;SDS011;64828;49.956;8.636;2023-04-28T00:53:44;5.20;;;3.53;;
76098;SDS011;64828;49.956;8.636;2023-04-28T00:54:01;5.22;;;3.38;;
76098;SDS011;64828;49.956;8.636;2023-04-28T00:54:18;4.57;;;3.33;;
76098;SDS011;64828;49.956;8.636;2023-04-28T00:54:35;5.32;;;3.40;;
76098;SDS011;64828;49.956;8.636;2023-04-28T00:54:54;5.68;;;3.20;;
76098;SDS011;64828;49.956;8.636;2023-04-28T00:55:11;5.43;;;3.20;;
76098;SDS011;64828;49.956;8.636;2023-04-28T00:55:31;5.20;;;3.15;;
76098;SDS011;64828;49.956;8.636;2023-04-28T00:55:49;5.38;;;3.30;;
76098;SDS011;64828;49.956;8.636;2023-04-28T00:56:08;5.25;;;3.80;;
76098;SDS011;64828;49.956;8.636;2023-04-28T00:56:24;5.38;;;3.72;;
76098;SDS011;64828;49.956;8.636;2023-04-28T00:56:44;4.22;;;3.35;;
76098;SDS011;64828;49.956;8.636;2023-04-28T00:57:01;4.93;;;3.50;;
76098;SDS011;64828;49.956;8.636;2023-04-28T00:57:17;5.55;;;3.20;;
76098;SDS011;64828;49.956;8.636;2023-04-28T00:57:33;5.75;;;3.38;;
76098;SDS011;64828;49.956;8.636;2023-04-28T00:57:50;5.18;;;3.50;;
76098;SDS011;64828;49.956;8.636;2023-04-28T00:58:06;5.78;;;3.40;;
76098;SDS011;64828;49.956;8.636;2023-04-28T00:58:23;5.93;;;3.45;;
76098;SDS011;64828;49.956;8.636;2023-04-28T00:58:39;5.32;;;3.30;;
76098;SDS011;64828;49.956;8.636;2023-04-28T00:58:56;4.75;;;3.20;;
76098;SDS011;64828;49.956;8.636;2023-04-28T00:59:12;4.82;;;3.30;;
76098;SDS011;64828;49.956;8.636;2023-04-28T00:59:28;4.55;;;3.40;;
76098;SDS011;64828;49.956;8.636;2023-04-28T00:59:44;5.65;;;3.40;;
76098;SDS011;64828;49.956;8.636;2023-04-28T01:00:01;6.00;;;3.60;;
76098;SDS011;64828;49.956;8.636;2023-04-28T01:00:18;5.18;;;3.55;;
76098;SDS011;64828;49.956;8.636;2023-04-28T01:00:33;5.33;;;3.50;;
76098;SDS011;64828;49.956;8.636;2023-04-28T01:00:49;4.00;;;3.42;;
76098;SDS011;64828;49.956;8.636;2023-04-28T01:01:05;4.53;;;3.40;;
76098;SDS011;64828;49.956;8.636;2023-04-28T01:01:23;5.00;;;3.33;;
76098;SDS011;64828;49.956;8.636;2023-04-28T01:01:39;4.78;;;3.08;;
76098;SDS011;64828;49.956;8.636;2023-04-28T01:01:55;4.40;;;3.08;;
76098;SDS011;64828;49.956;8.636;2023-04-28T01:02:11;4.38;;;3.17;;
76098;SDS011;64828;49.956;8.636;2023-04-28T01:02:33;4.80;;;3.40;;
76098;SDS011;64828;49.956;8.636;2023-04-28T01:02:50;4.40;;;3.28;;
76098;SDS011;64828;49.956;8.636;2023-04-28T01:03:08;5.20;;;3.30;;
76098;SDS011;64828;49.956;8.636;2023-04-28T01:03:23;5.10;;;3.20;;
76098;SDS011;64828;49.956;8.636;2023-04-28T01:03:39;4.22;;;3.10;;
76098;SDS011;64828;49.956;8.636;2023-04-28T01:03:55;5.13;;;3.35;;
76098;SDS011;64828;49.956;8.636;2023-04-28T01:04:11;6.23;;;3.50;;
76098;SDS011;64828;49.956;8.636;2023-04-28T01:04:26;5.28;;;3.30;;
76098;SDS011;64828;49.956;8.636;2023-04-28T01:04:44;4.93;;;3.33;;
76098;SDS011;64828;49.956;8.636;2023-04-28T01:05:01;5.55;;;3.33;;
76098;SDS011;64828;49.956;8.636;2023-04-28T01:05:17;4.97;;;3.33;;
76098;SDS011;64828;49.956;8.636;2023-04-28T01:05:33;4.80;;;3.55;;
76098;SDS011;64828;49.956;8.636;2023-04-28T01:05:51;5.75;;;3.65;;
76098;SDS011;64828;49.956;8.636;2023-04-28T01:06:07;6.77;;;3.70;;
76098;SDS011;64828;49.956;8.636;2023-04-28T01:06:23;5.38;;;3.67;;
76098;SDS011;64828;49.956;8.636;2023-04-28T01:06:39;5.22;;;3.75;;
76098;SDS011;64828;49.956;8.636;2023-04-28T01:06:56;6.32;;;3.75;;
76098;SDS011;64828;49.956;8.636;2023-04-28T01:07:14;5.97;;;3.60;;
76098;SDS011;64828;49.956;8.636;2023-04-28T01:07:30;5.32;;;3.75;;
76098;SDS011;64828;49.956;8.636;2023-04-28T01:07:45;5.47;;;4.07;;
76098;SDS011;64828;49.956;8.636;2023-04-28T01:08:01;4.57;;;3.92;;
76098;SDS011;64828;49.956;8.636;2023-04-28T01:08:21;5.00;;;3.70;;
76098;SDS011;64828;49.956;8.636;2023-04-28T01:08:38;6.45;;;3.83;;
76098;SDS011;64828;49.956;8.636;2023-04-28T01:08:54;5.57;;;3.80;;
76098;SDS011;64828;49.956;8.636;2023-04-28T01:09:10;5.15;;;3.80;;
76098;SDS011;64828;49.956;8.636;2023-04-28T01:09:25;6.93;;;3.88;;
76098;SDS011;64828;49.956;8.636;2023-04-28T01:09:41;7.00;;;3.80;;
76098;SDS011;64828;49.956;8.636;2023-04-28T01:09:57;6.35;;;4.00;;
76098;SDS011;64828;49.956;8.636;2023-04-28T01:10:13;6.07;;;4.13;;
76098;SDS011;64828;49.956;8.636;2023-04-28T01:10:29;5.20;;;4.00;;
76098;SDS011;64828;49.956;8.636;2023-04-28T01:10:44;5.18;;;3.88;;
76098;SDS011;64828;49.956;8.636;2023-04-28T01:11:00;6.05;;;3.95;;
76098;SDS011;64828;49.956;8.636;2023-04-28T01:11:16;6.27;;;4.10;;
76098;SDS011;64828;49.956;8.636;2023-04-28T01:11:31;5.97;;;4.00;;
76098;SDS011;64828;49.956;8.636;2023-04-28T01:11:47;5.20;;;3.90;;
76098;SDS011;64828;49.956;8.636;2023-04-28T01:12:03;5.00;;;3.88;;
76098;SDS011;64828;49.956;8.636;2023-04-28T01:12:19;5.83;;;4.07;;
76098;SDS011;64828;49.956;8.636;2023-04-28T01:12:35;5.93;;;3.90;;
76098;SDS011;64828;49.956;8.636;2023-04-28T01:12:50;6.05;;;3.78;;
76098;SDS011;64828;49.956;8.636;2023-04-28T01:13:06;6.23;;;3.90;;
76098;SDS011;64828;49.956;8.636;2023-04-28T01:13:21;5.82;;;3.75;;
76098;SDS011;64828;49.956;8.636;2023-04-28T01:13:37;4.37;;;3.40;;
76098;SDS011;64828;49.956;8.636;2023-04-28T01:13:53;4.43;;;3.33;;
76098;SDS011;64828;49.956;8.636;2023-04-28T01:14:08;5.13;;;3.53;;
76098;SDS011;64828;49.956;8.636;2023-04-28T01:14:24;6.37;;;3.60;;
76098;SDS011;64828;49.956;8.636;2023-04-28T01:14:40;7.80;;;3.50;;
76098;SDS011;64828;49.956;8.636;2023-04-28T01:14:56;7.15;;;3.60;;
76098;SDS011;64828;49.956;8.636;2023-04-28T01:15:15;5.90;;;3.60;;
76098;SDS011;64828;49.956;8.636;2023-04-28T01:15:34;5.32;;;3.67;;
76098;SDS011;64828;49.956;8.636;2023-04-28T01:15:49;5.65;;;4.03;;
76098;SDS011;64828;49.956;8.636;2023-04-28T01:16:06;6.38;;;3.90;;
76098;SDS011;64828;49.956;8.636;2023-04-28T01:16:21;6.32;;;3.70;;
76098;SDS011;64828;49.956;8.636;2023-04-28T01:16:37;5.60;;;3.90;;
76098;SDS011;64828;49.956;8.636;2023-04-28T01:16:54;4.88;;;3.90;;
76098;SDS011;64828;49.956;8.636;2023-04-28T01:17:10;4.75;;;3.70;;
76098;SDS011;64828;49.956;8.636;2023-04-28T01:17:26;4.88;;;3.60;;
76098;SDS011;64828;49.956;8.636;2023-04-28T01:17:42;4.73;;;3.87;;
76098;SDS011;64828;49.956;8.636;2023-04-28T01:17:59;5.15;;;4.03;;
76098;SDS011;64828;49.956;8.636;2023-04-28T01:18:15;5.32;;;3.75;;
76098;SDS011;64828;49.956;8.636;2023-04-28T01:18:31;5.90;;;3.67;;
76098;SDS011;64828;49.956;8.636;2023-04-28T01:18:47;7.18;;;3.90;;
76098;SDS011;64828;49.956;8.636;2023-04-28T01:19:02;7.03;;;3.90;;
76098;SDS011;64828;49.956;8.636;2023-04-28T01:19:22;4.82;;;3.75;;
76098;SDS011;64828;49.956;8.636;2023-04-28T01:19:37;5.13;;;3.65;;
76098;SDS011;64828;49.956;8.636;2023-04-28T01:19:53;6.10;;;3.73;;
76098;SDS011;64828;49.956;8.636;2023-04-28T01:20:09;5.38;;;3.47;;
76098;SDS011;64828;49.956;8.636;2023-04-28T01:20:25;5.03;;;3.72;;
76098;SDS011;64828;49.956;8.636;2023-04-28T01:20:41;4.80;;;3.67;;
76098;SDS011;64828;49.956;8.636;2023-04-28T01:20:57;4.32;;;3.40;;
76098;SDS011;64828;49.956;8.636;2023-04-28T01:21:13;5.07;;;3.47;;
76098;SDS011;64828;49.956;8.636;2023-04-28T01:21:31;5.70;;;3.50;;
76098;SDS011;64828;49.956;8.636;2023-04-28T01:21:50;4.70;;;3.28;;
76098;SDS011;64828;49.956;8.636;2023-04-28T01:22:06;5.70;;;3.30;;
76098;SDS011;64828;49.956;8.636;2023-04-28T01:22:24;5.90;;;3.50;;
76098;SDS011;64828;49.956;8.636;2023-04-28T01:22:40;4.65;;;3.30;;
76098;SDS011;64828;49.956;8.636;2023-04-28T01:22:56;5.70;;;3.53;;
76098;SDS011;64828;49.956;8.636;2023-04-28T01:23:12;6.45;;;3.60;;
76098;SDS011;64828;49.956;8.636;2023-04-28T01:23:31;6.50;;;3.30;;
76098;SDS011;64828;49.956;8.636;2023-04-28T01:23:47;5.70;;;3.33;;
76098;SDS011;64828;49.956;8.636;2023-04-28T01:24:04;4.97;;;3.50;;
76098;SDS011;64828;49.956;8.636;2023-04-28T01:24:20;4.38;;;3.45;;
76098;SDS011;64828;49.956;8.636;2023-04-28T01:24:36;5.03;;;3.50;;
76098;SDS011;64828;49.956;8.636;2023-04-28T01:24:52;5.43;;;3.47;;
76098;SDS011;64828;49.956;8.636;2023-04-28T01:25:07;5.10;;;3.35;;
76098;SDS011;64828;49.956;8.636;2023-04-28T01:25:23;5.85;;;3.60;;
76098;SDS011;64828;49.956;8.636;2023-04-28T01:25:39;5.33;;;3.60;;
76098;SDS011;64828;49.956;8.636;2023-04-28T01:25:55;5.32;;;3.40;;
76098;SDS011;64828;49.956;8.636;2023-04-28T01:26:12;5.40;;;3.42;;
76098;SDS011;64828;49.956;8.636;2023-04-28T01:26:27;5.57;;;3.58;;
76098;SDS011;64828;49.956;8.636;2023-04-28T01:26:43;6.40;;;3.40;;
76098;SDS011;64828;49.956;8.636;2023-04-28T01:26:59;5.70;;;3.20;;
76098;SDS011;64828;49.956;8.636;2023-04-28T01:27:15;5.20;;;3.47;;
76098;SDS011;64828;49.956;8.636;2023-04-28T01:27:30;7.35;;;3.70;;
76098;SDS011;64828;49.956;8.636;2023-04-28T01:27:46;6.90;;;3.65;;
76098;SDS011;64828;49.956;8.636;2023-04-28T01:28:02;5.50;;;3.63;;
76098;SDS011;64828;49.956;8.636;2023-04-28T01:28:17;6.30;;;3.92;;
76098;SDS011;64828;49.956;8.636;2023-04-28T01:28:33;6.18;;;3.65;;
76098;SDS011;64828;49.956;8.636;2023-04-28T01:28:48;7.03;;;3.47;;
76098;SDS011;64828;49.956;8.636;2023-04-28T01:29:04;6.20;;;3.60;;
76098;SDS011;64828;49.956;8.636;2023-04-28T01:29:20;4.18;;;3.30;;
76098;SDS011;64828;49.956;8.636;2023-04-28T01:29:36;5.97;;;3.40;;
76098;SDS011;64828;49.956;8.636;2023-04-28T01:29:51;6.35;;;3.58;;
76098;SDS011;64828;49.956;8.636;2023-04-28T01:30:07;5.13;;;3.70;;
76098;SDS011;64828;49.956;8.636;2023-04-28T01:30:23;4.95;;;3.50;;
76098;SDS011;64828;49.956;8.636;2023-04-28T01:30:39;6.20;;;3.53;;
76098;SDS011;64828;49.956;8.636;2023-04-28T01:30:55;6.20;;;3.90;;
76098;SDS011;64828;49.956;8.636;2023-04-28T01:31:10;5.45;;;4.00;;
76098;SDS011;64828;49.956;8.636;2023-04-28T01:31:26;4.77;;;3.57;;
76098;SDS011;64828;49.956;8.636;2023-04-28T01:31:41;5.40;;;3.50;;
76098;SDS011;64828;49.956;8.636;2023-04-28T01:31:57;6.77;;;3.60;;
76098;SDS011;64828;49.956;8.636;2023-04-28T01:32:12;6.28;;;3.63;;
76098;SDS011;64828;49.956;8.636;2023-04-28T01:32:28;5.57;;;3.70;;
76098;SDS011;64828;49.956;8.636;2023-04-28T01:32:44;6.15;;;3.72;;
76098;SDS011;64828;49.956;8.636;2023-04-28T01:32:59;5.72;;;3.67;;
76098;SDS011;64828;49.956;8.636;2023-04-28T01:33:16;4.75;;;3.55;;
76098;SDS011;64828;49.956;8.636;2023-04-28T01:33:31;5.20;;;3.70;;
76098;SDS011;64828;49.956;8.636;2023-04-28T01:33:47;4.85;;;3.63;;
76098;SDS011;64828;49.956;8.636;2023-04-28T01:34:02;4.80;;;3.58;;
76098;SDS011;64828;49.956;8.636;2023-04-28T01:34:18;4.93;;;3.47;;
76098;SDS011;64828;49.956;8.636;2023-04-28T01:34:34;5.43;;;3.50;;
76098;SDS011;64828;49.956;8.636;2023-04-28T01:34:50;6.30;;;3.78;;
76098;SDS011;64828;49.956;8.636;2023-04-28T01:35:05;7.38;;;3.90;;
76098;SDS011;64828;49.956;8.636;2023-04-28T01:35:21;7.28;;;3.78;;
76098;SDS011;64828;49.956;8.636;2023-04-28T01:35:37;6.37;;;3.40;;
76098;SDS011;64828;49.956;8.636;2023-04-28T01:35:56;6.55;;;3.40;;
76098;SDS011;64828;49.956;8.636;2023-04-28T01:36:12;4.85;;;3.40;;
76098;SDS011;64828;49.956;8.636;2023-04-28T01:36:28;5.97;;;3.43;;
76098;SDS011;64828;49.956;8.636;2023-04-28T01:36:44;5.85;;;3.45;;
76098;SDS011;64828;49.956;8.636;2023-04-28T01:37:00;5.43;;;3.65;;
76098;SDS011;64828;49.956;8.636;2023-04-28T01:37:15;5.93;;;3.63;;
76098;SDS011;64828;49.956;8.636;2023-04-28T01:37:31;5.53;;;3.53;;
76098;SDS011;64828;49.956;8.636;2023-04-28T01:37:46;5.20;;;3.58;;
76098;SDS011;64828;49.956;8.636;2023-04-28T01:38:02;5.20;;;3.60;;